createdAt,value
2019-04-03T00:02:02.666Z,97108.98
2019-04-03T00:04:31.184Z,97109.66
2019-04-03T00:06:58.970Z,97104.59
2019-04-03T00:09:26.897Z,97102.11
2019-04-03T00:11:54.799Z,97099.16
2019-04-03T00:14:22.868Z,97101.16
2019-04-03T00:16:50.795Z,97095.91
2019-04-03T00:19:18.792Z,97098.23
2019-04-03T00:21:46.901Z,97098.43
2019-04-03T00:24:14.938Z,97093.12
2019-04-03T00:26:42.711Z,97092.27
2019-04-03T00:29:10.632Z,97083.91
2019-04-03T00:31:38.646Z,97079.53
2019-04-03T00:34:06.657Z,97081.39
2019-04-03T00:36:34.590Z,97082.17
2019-04-03T00:39:04.563Z,97081.97
2019-04-03T00:41:34.514Z,97073.69
2019-04-03T00:44:02.379Z,97072.98
2019-04-03T00:46:30.331Z,97070.34
2019-04-03T00:48:58.400Z,97067.09
2019-04-03T00:51:27.520Z,97069.31
2019-04-03T00:53:58.007Z,97064.66
2019-04-03T00:56:26.703Z,97065.04
2019-04-03T00:58:55.386Z,97062.38
2019-04-03T01:01:26.135Z,97055.91
2019-04-03T01:03:53.763Z,97050.64
2019-04-03T01:06:21.801Z,97054.00
2019-04-03T01:08:49.923Z,97050.30
2019-04-03T01:11:17.978Z,97055.98
2019-04-03T01:13:45.748Z,97053.58
2019-04-03T01:16:13.671Z,97046.27
2019-04-03T01:18:41.685Z,97044.02
2019-04-03T01:21:09.862Z,97039.02
2019-04-03T01:23:38.224Z,97046.88
2019-04-03T01:26:06.169Z,97039.72
2019-04-03T01:28:34.243Z,97040.95
2019-04-03T01:31:02.214Z,97038.28
2019-04-03T01:33:31.221Z,97032.82
2019-04-03T01:35:59.446Z,97038.55
2019-04-03T01:38:27.406Z,97034.48
2019-04-03T01:40:55.628Z,97035.69
2019-04-03T01:43:23.773Z,97029.48
2019-04-03T01:45:51.971Z,97034.68
2019-04-03T01:48:19.812Z,97027.20
2019-04-03T01:50:47.975Z,97029.56
2019-04-03T01:53:16.059Z,97029.91
2019-04-03T01:55:44.084Z,97030.84
2019-04-03T01:58:12.087Z,97021.42
2019-04-03T02:00:40.056Z,97018.27
2019-04-03T02:03:10.315Z,97012.73
2019-04-03T02:05:39.790Z,97006.27
2019-04-03T02:08:07.765Z,97004.64
2019-04-03T02:10:36.007Z,97009.75
2019-04-03T02:13:03.972Z,96982.95
2019-04-03T02:15:31.954Z,97003.13
2019-04-03T02:17:59.903Z,97003.66
2019-04-03T02:20:28.320Z,97001.30
2019-04-03T02:22:56.244Z,96993.52
2019-04-03T02:25:24.205Z,96993.95
2019-04-03T02:27:52.051Z,96987.36
2019-04-03T02:30:19.989Z,96987.67
2019-04-03T02:32:48.493Z,96989.27
2019-04-03T02:35:16.961Z,96988.64
2019-04-03T02:37:48.383Z,96992.05
2019-04-03T02:40:14.961Z,96964.88
2019-04-03T02:42:43.305Z,96982.57
2019-04-03T02:45:11.479Z,96976.92
2019-04-03T02:47:39.519Z,96980.63
2019-04-03T02:50:07.862Z,96975.56
2019-04-03T02:52:36.782Z,96975.52
2019-04-03T02:55:07.415Z,96966.86
2019-04-03T02:57:35.165Z,96972.86
2019-04-03T03:00:03.679Z,96978.97
2019-04-03T03:02:31.624Z,96974.37
2019-04-03T03:05:00.144Z,96968.44
2019-04-03T03:07:27.968Z,96968.59
2019-04-03T03:09:56.481Z,96963.72
2019-04-03T03:12:27.147Z,96959.19
2019-04-03T03:14:55.050Z,96963.52
2019-04-03T03:17:24.201Z,96964.57
2019-04-03T03:19:52.514Z,96963.75
2019-04-03T03:22:20.470Z,96962.95
2019-04-03T03:24:48.913Z,96960.12
2019-04-03T03:27:17.114Z,96955.05
2019-04-03T03:29:45.357Z,96954.27
2019-04-03T03:32:19.832Z,96948.08
2019-04-03T03:34:54.069Z,96954.34
2019-04-03T03:37:15.560Z,96952.69
2019-04-03T03:39:44.575Z,96941.14
2019-04-03T03:42:14.050Z,96960.50
2019-04-03T03:44:45.481Z,96959.36
2019-04-03T03:47:12.684Z,96956.64
2019-04-03T03:49:41.104Z,96956.23
2019-04-03T03:52:09.128Z,96953.76
2019-04-03T03:54:37.839Z,96950.30
2019-04-03T03:57:07.193Z,96954.17
2019-04-03T03:59:36.739Z,96954.00
2019-04-03T04:02:06.102Z,96949.28
2019-04-03T04:04:34.447Z,96956.86
2019-04-03T04:07:04.508Z,96951.70
2019-04-03T04:09:32.821Z,96952.56
2019-04-03T04:12:04.546Z,96948.69
2019-04-03T04:14:31.204Z,96939.98
2019-04-03T04:16:59.261Z,96955.28
2019-04-03T04:19:30.191Z,96950.41
2019-04-03T04:21:57.555Z,96950.54
2019-04-03T04:24:27.648Z,96944.84
2019-04-03T04:26:55.529Z,96951.03
2019-04-03T04:29:23.996Z,96948.18
2019-04-03T04:31:51.911Z,96953.13
2019-04-03T04:34:19.917Z,96956.75
2019-04-03T04:36:47.796Z,96953.38
2019-04-03T04:39:15.695Z,96954.18
2019-04-03T04:41:43.649Z,96962.45
2019-04-03T04:44:14.203Z,96960.75
2019-04-03T04:46:43.609Z,96954.09
2019-04-03T04:49:11.814Z,96952.45
2019-04-03T04:51:41.403Z,96950.60
2019-04-03T04:54:09.525Z,96949.92
2019-04-03T04:56:38.415Z,96945.28
2019-04-03T04:59:06.417Z,96941.98
2019-04-03T05:01:34.635Z,96945.94
2019-04-03T05:04:02.706Z,96949.22
2019-04-03T05:06:30.690Z,96946.48
2019-04-03T05:08:59.220Z,96955.46
2019-04-03T05:11:27.305Z,96951.56
2019-04-03T05:13:55.211Z,96951.20
2019-04-03T05:16:25.048Z,96959.27
2019-04-03T05:18:53.688Z,96959.15
2019-04-03T05:21:22.332Z,96954.66
2019-04-03T05:23:50.754Z,96955.28
2019-04-03T05:26:20.946Z,96948.92
2019-04-03T05:28:57.094Z,96937.27
2019-04-03T05:31:21.379Z,96944.66
2019-04-03T05:33:49.295Z,96938.34
2019-04-03T05:36:18.314Z,96933.59
2019-04-03T05:38:46.323Z,96934.80
2019-04-03T05:41:14.368Z,96938.02
2019-04-03T05:43:42.468Z,96930.41
2019-04-03T05:46:10.568Z,96937.50
2019-04-03T05:48:38.499Z,96940.53
2019-04-03T05:51:06.406Z,96930.39
2019-04-03T05:53:36.619Z,96931.54
2019-04-03T05:56:04.453Z,96924.45
2019-04-03T05:58:32.495Z,96925.67
2019-04-03T06:01:05.432Z,96922.82
2019-04-03T06:03:39.227Z,96922.53
2019-04-03T06:06:02.042Z,96911.80
2019-04-03T06:08:30.215Z,96926.81
2019-04-03T06:10:58.055Z,96924.50
2019-04-03T06:13:26.052Z,96924.73
2019-04-03T06:15:54.179Z,96921.03
2019-04-03T06:18:22.167Z,96916.72
2019-04-03T06:20:50.071Z,96912.21
2019-04-03T06:23:20.972Z,96921.95
2019-04-03T06:25:48.008Z,96917.56
2019-04-03T06:28:15.880Z,96920.02
2019-04-03T06:30:43.741Z,96926.88
2019-04-03T06:33:11.634Z,96923.40
2019-04-03T06:35:39.538Z,96917.92
2019-04-03T06:38:07.522Z,96908.84
2019-04-03T06:40:36.327Z,96908.66
2019-04-03T06:43:04.367Z,96908.67
2019-04-03T06:45:32.617Z,96909.77
2019-04-03T06:48:00.671Z,96919.05
2019-04-03T06:50:28.771Z,96918.31
2019-04-03T06:52:56.755Z,96912.39
2019-04-03T06:55:25.507Z,96916.36
2019-04-03T06:57:54.154Z,96916.14
2019-04-03T07:00:22.050Z,96912.27
2019-04-03T07:02:50.141Z,96900.73
2019-04-03T07:05:18.279Z,96899.24
2019-04-03T07:07:46.304Z,96903.91
2019-04-03T07:10:24.805Z,96896.40
2019-04-03T07:12:46.427Z,96905.08
2019-04-03T07:15:15.354Z,96900.84
2019-04-03T07:17:43.590Z,96896.73
2019-04-03T07:20:14.170Z,96896.98
2019-04-03T07:22:42.008Z,96900.71
2019-04-03T07:25:10.184Z,96899.84
2019-04-03T07:27:41.271Z,96904.19
2019-04-03T07:30:08.334Z,96903.60
2019-04-03T07:32:36.225Z,96900.38
2019-04-03T07:35:08.920Z,96907.45
2019-04-03T07:37:35.068Z,96908.81
2019-04-03T07:40:03.480Z,96901.61
2019-04-03T07:42:31.410Z,96906.75
2019-04-03T07:45:01.411Z,96904.63
2019-04-03T07:47:29.622Z,96900.69
2019-04-03T07:49:57.613Z,96898.13
2019-04-03T07:52:25.931Z,96897.05
2019-04-03T07:54:56.643Z,96905.43
2019-04-03T07:57:25.065Z,96903.67
2019-04-03T07:59:53.264Z,96900.65
2019-04-03T08:02:21.366Z,96900.65
2019-04-03T08:04:49.427Z,96898.22
2019-04-03T08:07:17.519Z,96895.50
2019-04-03T08:09:45.525Z,96895.50
2019-04-03T08:12:13.643Z,96893.11
2019-04-03T08:14:41.994Z,96904.58
2019-04-03T08:17:10.062Z,96900.08
2019-04-03T08:19:37.990Z,96901.52
2019-04-03T08:22:05.996Z,96896.21
2019-04-03T08:24:33.945Z,96899.14
2019-04-03T08:27:01.828Z,96887.30
2019-04-03T08:29:31.062Z,96891.87
2019-04-03T08:31:59.780Z,96887.76
2019-04-03T08:34:30.678Z,96898.13
2019-04-03T08:36:57.795Z,96895.17
2019-04-03T08:39:26.217Z,96891.42
2019-04-03T08:41:56.036Z,96895.40
2019-04-03T08:44:23.979Z,96884.36
2019-04-03T08:46:51.958Z,96884.21
2019-04-03T08:49:20.251Z,96878.45
2019-04-03T08:51:49.549Z,96881.47
2019-04-03T08:54:17.908Z,96884.19
2019-04-03T08:56:48.332Z,96879.53
2019-04-03T08:59:15.965Z,96876.89
2019-04-03T09:01:44.225Z,96874.58
2019-04-03T09:04:12.241Z,96872.19
2019-04-03T09:06:40.183Z,96872.35
2019-04-03T09:09:09.610Z,96862.46
2019-04-03T09:11:38.163Z,96865.73
2019-04-03T09:14:06.402Z,96871.62
2019-04-03T09:16:35.718Z,96869.16
2019-04-03T09:19:03.880Z,96853.66
2019-04-03T09:21:32.130Z,96853.59
2019-04-03T09:24:00.375Z,96849.99
2019-04-03T09:26:28.318Z,96843.59
2019-04-03T09:28:56.506Z,96841.95
2019-04-03T09:31:24.751Z,96831.70
2019-04-03T09:33:52.694Z,96821.54
2019-04-03T09:36:21.714Z,96823.73
2019-04-03T09:38:49.965Z,96822.31
2019-04-03T09:41:19.230Z,96819.98
2019-04-03T09:43:47.985Z,96821.75
2019-04-03T09:46:15.961Z,96817.58
2019-04-03T09:48:43.834Z,96817.58
2019-04-03T09:51:12.116Z,96807.73
2019-04-03T09:53:40.199Z,96815.45
2019-04-03T09:56:08.631Z,96807.80
2019-04-03T09:58:36.743Z,96807.02
2019-04-03T10:01:05.035Z,96797.45
2019-04-03T10:03:34.144Z,96798.91
2019-04-03T10:06:02.777Z,96795.59
2019-04-03T10:08:30.818Z,96796.09
2019-04-03T10:10:59.134Z,96787.92
2019-04-03T10:13:26.991Z,96786.06
2019-04-03T10:15:56.005Z,96774.19
2019-04-03T10:18:23.904Z,96781.03
2019-04-03T10:20:52.126Z,96770.30
2019-04-03T10:23:20.072Z,96767.15
2019-04-03T10:25:48.093Z,96775.00
2019-04-03T10:28:16.404Z,96764.66
2019-04-03T10:30:45.153Z,96759.97
2019-04-03T10:33:13.207Z,96755.20
2019-04-03T10:35:41.068Z,96752.38
2019-04-03T10:38:09.131Z,96742.89
2019-04-03T10:40:37.532Z,96749.03
2019-04-03T10:43:06.342Z,96736.02
2019-04-03T10:45:34.852Z,96733.57
2019-04-03T10:48:03.939Z,96747.90
2019-04-03T10:50:31.946Z,96733.06
2019-04-03T10:53:00.164Z,96734.21
2019-04-03T10:55:29.367Z,96733.66
2019-04-03T10:57:57.754Z,96735.70
2019-04-03T11:00:28.627Z,96727.42
2019-04-03T11:02:56.275Z,96732.09
2019-04-03T11:05:24.360Z,96725.39
2019-04-03T11:07:52.531Z,96722.73
2019-04-03T11:10:23.456Z,96719.82
2019-04-03T11:12:50.968Z,96724.92
2019-04-03T11:15:19.103Z,96732.67
2019-04-03T11:17:49.364Z,96729.16
2019-04-03T11:20:17.352Z,96717.70
2019-04-03T11:22:48.993Z,96719.72
2019-04-03T11:25:17.387Z,96716.56
2019-04-03T11:27:46.164Z,96715.81
2019-04-03T11:30:54.599Z,96710.13
2019-04-03T11:32:45.192Z,96709.26
2019-04-03T11:35:13.813Z,96692.34
2019-04-03T11:37:41.897Z,96697.84
2019-04-03T11:40:10.575Z,96704.34
2019-04-03T11:42:38.452Z,96696.51
2019-04-03T11:45:06.992Z,96682.83
2019-04-03T11:47:35.000Z,96684.05
2019-04-03T11:50:03.539Z,96687.58
2019-04-03T11:52:31.975Z,96681.77
2019-04-03T11:55:00.279Z,96671.95
2019-04-03T11:57:28.661Z,96670.89
2019-04-03T11:59:57.038Z,96677.08
2019-04-03T12:02:26.028Z,96672.86
2019-04-03T12:04:54.479Z,96670.58
2019-04-03T12:07:24.459Z,96657.21
2019-04-03T12:09:52.339Z,96661.08
2019-04-03T12:12:21.578Z,96651.59
2019-04-03T12:14:50.166Z,96645.66
2019-04-03T12:17:20.108Z,96650.88
2019-04-03T12:19:48.714Z,96644.09
2019-04-03T12:22:16.928Z,96641.23
2019-04-03T12:24:45.219Z,96639.53
2019-04-03T12:27:14.040Z,96637.86
2019-04-03T12:29:43.283Z,96624.77
2019-04-03T12:32:11.283Z,96620.92
2019-04-03T12:34:39.556Z,96620.31
2019-04-03T12:37:07.769Z,96621.14
2019-04-03T12:39:35.806Z,96610.12
2019-04-03T12:42:08.322Z,96612.00
2019-04-03T12:44:35.651Z,96615.61
2019-04-03T12:47:06.906Z,96592.78
2019-04-03T12:49:33.449Z,96614.41
2019-04-03T12:52:03.707Z,96620.75
2019-04-03T12:54:31.290Z,96616.56
2019-04-03T12:57:01.649Z,96622.05
2019-04-03T12:59:29.386Z,96601.97
2019-04-03T13:01:57.551Z,96600.02
2019-04-03T13:04:28.232Z,96601.27
2019-04-03T13:06:55.643Z,96601.24
2019-04-03T13:09:23.605Z,96601.89
2019-04-03T13:11:51.968Z,96614.20
2019-04-03T13:14:25.097Z,96593.22
2019-04-03T13:16:49.771Z,96584.43
2019-04-03T13:19:17.839Z,96581.61
2019-04-03T13:21:46.076Z,96579.84
2019-04-03T13:24:15.832Z,96574.48
2019-04-03T13:26:44.133Z,96570.81
2019-04-03T13:29:12.206Z,96574.66
2019-04-03T13:31:40.711Z,96560.97
2019-04-03T13:34:11.833Z,96562.57
2019-04-03T13:36:39.934Z,96568.60
2019-04-03T13:39:07.959Z,96574.53
2019-04-03T13:41:35.878Z,96573.67
2019-04-03T13:44:03.903Z,96572.19
2019-04-03T13:46:32.469Z,96572.58
2019-04-03T13:49:00.568Z,96567.26
2019-04-03T13:51:30.556Z,96567.75
2019-04-03T13:53:58.447Z,96569.70
2019-04-03T13:56:26.842Z,96570.59
2019-04-03T13:58:55.913Z,96565.92
2019-04-03T14:01:27.672Z,96576.03
2019-04-03T14:03:55.564Z,96579.14
2019-04-03T14:06:24.106Z,96580.53
2019-04-03T14:08:52.010Z,96585.48
2019-04-03T14:11:19.974Z,96583.45
2019-04-03T14:13:48.388Z,96587.29
2019-04-03T14:16:21.350Z,96586.89
2019-04-03T14:18:45.989Z,96583.67
2019-04-03T14:21:14.098Z,96584.08
2019-04-03T14:23:42.056Z,96573.80
2019-04-03T14:26:12.987Z,96587.97
2019-04-03T14:28:41.955Z,96579.44
2019-04-03T14:31:10.503Z,96564.80
2019-04-03T14:33:44.182Z,96615.20
2019-04-03T14:36:08.481Z,96599.60
2019-04-03T14:38:36.583Z,96620.55
2019-04-03T14:41:04.723Z,96661.56
2019-04-03T14:43:34.459Z,96658.61
2019-04-03T14:46:02.903Z,96657.72
2019-04-03T14:48:31.788Z,96677.45
2019-04-03T14:50:59.971Z,96683.36
2019-04-03T14:53:28.252Z,96686.74
2019-04-03T14:55:56.315Z,96714.22
2019-04-03T14:58:26.896Z,96694.15
2019-04-03T15:00:54.422Z,96689.86
2019-04-03T15:03:22.787Z,96684.47
2019-04-03T15:05:51.279Z,96679.09
2019-04-03T15:08:20.306Z,96675.41
2019-04-03T15:10:50.209Z,96657.81
2019-04-03T15:13:19.069Z,96664.20
2019-04-03T15:15:46.946Z,96666.30
2019-04-03T15:18:15.299Z,96659.39
2019-04-03T15:20:43.432Z,96653.80
2019-04-03T15:23:12.070Z,96630.09
2019-04-03T15:25:42.550Z,96652.85
2019-04-03T15:28:10.355Z,96658.05
2019-04-03T15:30:41.638Z,96643.99
2019-04-03T15:33:09.046Z,96649.00
2019-04-03T15:35:37.463Z,96640.01
2019-04-03T15:38:05.335Z,96643.47
2019-04-03T15:40:33.302Z,96647.03
2019-04-03T15:43:01.771Z,96647.36
2019-04-03T15:45:29.876Z,96651.66
2019-04-03T15:47:58.458Z,96650.70
2019-04-03T15:50:27.912Z,96654.88
2019-04-03T15:52:56.639Z,96646.95
2019-04-03T15:55:25.413Z,96643.93
2019-04-03T15:57:53.998Z,96645.06
2019-04-03T16:00:22.453Z,96638.94
2019-04-03T16:02:50.320Z,96641.99
2019-04-03T16:05:18.824Z,96651.63
2019-04-03T16:07:47.337Z,96652.88
2019-04-03T16:10:15.527Z,96645.20
2019-04-03T16:12:44.132Z,96640.53
2019-04-03T16:15:12.794Z,96647.63
2019-04-03T16:17:40.730Z,96648.56
2019-04-03T16:20:08.815Z,96651.05
2019-04-03T16:22:36.912Z,96649.48
2019-04-03T16:25:05.261Z,96650.73
2019-04-03T16:27:33.311Z,96648.28
2019-04-03T16:30:01.319Z,96658.34
2019-04-03T16:32:29.365Z,96648.08
2019-04-03T16:34:57.916Z,96652.64
2019-04-03T16:37:25.938Z,96647.41
2019-04-03T16:39:54.141Z,96655.77
2019-04-03T16:42:22.681Z,96643.16
2019-04-03T16:44:50.979Z,96644.98
2019-04-03T16:47:19.198Z,96637.36
2019-04-03T16:49:47.560Z,96635.63
2019-04-03T16:52:15.854Z,96641.01
2019-04-03T16:54:44.998Z,96637.98
2019-04-03T16:57:13.774Z,96630.30
2019-04-03T16:59:41.881Z,96630.33
2019-04-03T17:02:09.976Z,96625.97
2019-04-03T17:04:37.935Z,96627.17
2019-04-03T17:07:06.300Z,96623.63
2019-04-03T17:09:37.479Z,96627.00
2019-04-03T17:12:04.074Z,96625.64
2019-04-03T17:14:33.192Z,96622.72
2019-04-03T17:17:01.200Z,96622.37
2019-04-03T17:19:29.607Z,96624.02
2019-04-03T17:21:57.677Z,96622.86
2019-04-03T17:24:25.897Z,96621.94
2019-04-03T17:26:58.533Z,96622.67
2019-04-03T17:29:24.789Z,96623.02
2019-04-03T17:31:52.998Z,96638.56
2019-04-03T17:34:22.123Z,96629.48
2019-04-03T17:36:52.677Z,96627.89
2019-04-03T17:39:20.171Z,96627.47
2019-04-03T17:41:48.237Z,96627.07
2019-04-03T17:44:16.311Z,96626.09
2019-04-03T17:46:44.271Z,96634.37
2019-04-03T17:49:12.292Z,96631.89
2019-04-03T17:51:40.255Z,96630.03
2019-04-03T17:54:09.284Z,96625.14
2019-04-03T17:56:37.422Z,96634.84
2019-04-03T17:59:05.374Z,96628.75
2019-04-03T18:01:33.593Z,96626.47
2019-04-03T18:04:01.579Z,96628.42
2019-04-03T18:06:29.642Z,96622.25
2019-04-03T18:08:57.502Z,96626.28
2019-04-03T18:11:25.722Z,96635.13
2019-04-03T18:13:54.973Z,96636.30
2019-04-03T18:16:23.835Z,96641.82
2019-04-03T18:18:51.738Z,96644.87
2019-04-03T18:21:19.952Z,96642.47
2019-04-03T18:23:47.912Z,96649.84
2019-04-03T18:26:16.158Z,96659.34
2019-04-03T18:28:44.125Z,96659.73
2019-04-03T18:31:13.615Z,96664.13
2019-04-03T18:33:41.902Z,96655.86
2019-04-03T18:36:10.109Z,96658.47
2019-04-03T18:38:39.689Z,96657.38
2019-04-03T18:41:07.567Z,96668.23
2019-04-03T18:43:35.339Z,96660.43
2019-04-03T18:46:03.642Z,96642.09
2019-04-03T18:48:31.580Z,96655.36
2019-04-03T18:50:59.535Z,96656.13
2019-04-03T18:53:27.442Z,96657.09
2019-04-03T18:55:55.666Z,96660.03
2019-04-03T18:58:24.352Z,96659.16
2019-04-03T19:00:53.454Z,96659.59
2019-04-03T19:03:21.389Z,96663.57
2019-04-03T19:05:49.685Z,96660.02
2019-04-03T19:08:18.165Z,96657.39
2019-04-03T19:10:46.770Z,96661.25
2019-04-03T19:13:14.781Z,96666.44
2019-04-03T19:15:42.863Z,96666.92
2019-04-03T19:18:19.414Z,96679.74
2019-04-03T19:20:41.491Z,96676.39
2019-04-03T19:23:10.986Z,96680.75
2019-04-03T19:25:39.255Z,96679.54
2019-04-03T19:28:07.185Z,96671.80
2019-04-03T19:30:36.119Z,96665.56
2019-04-03T19:33:05.060Z,96669.80
2019-04-03T19:35:33.007Z,96662.34
2019-04-03T19:38:04.609Z,96665.20
2019-04-03T19:40:31.386Z,96663.07
2019-04-03T19:42:59.446Z,96667.66
2019-04-03T19:45:27.535Z,96672.84
2019-04-03T19:47:55.632Z,96678.38
2019-04-03T19:50:24.553Z,96677.19
2019-04-03T19:52:52.800Z,96676.44
2019-04-03T19:55:23.256Z,96677.56
2019-04-03T19:57:50.519Z,96674.66
2019-04-03T20:00:18.605Z,96666.94
2019-04-03T20:02:46.445Z,96671.05
2019-04-03T20:05:14.260Z,96664.90
2019-04-03T20:07:42.287Z,96672.81
2019-04-03T20:10:10.871Z,96665.84
2019-04-03T20:12:39.954Z,96664.88
2019-04-03T20:15:08.157Z,96662.11
2019-04-03T20:17:37.242Z,96669.94
2019-04-03T20:20:05.516Z,96667.67
2019-04-03T20:22:33.468Z,96670.78
2019-04-03T20:25:01.495Z,96675.23
2019-04-03T20:27:29.594Z,96675.36
2019-04-03T20:29:58.902Z,96680.81
2019-04-03T20:32:27.367Z,96680.33
2019-04-03T20:34:55.277Z,96677.91
2019-04-03T20:37:25.914Z,96675.73
2019-04-03T20:39:53.213Z,96679.09
2019-04-03T20:42:21.252Z,96671.51
2019-04-03T20:44:49.320Z,96667.30
2019-04-03T20:47:17.223Z,96664.27
2019-04-03T20:49:45.201Z,96668.23
2019-04-03T20:52:13.376Z,96669.93
2019-04-03T20:54:41.499Z,96668.13
2019-04-03T20:57:09.295Z,96669.67
2019-04-03T20:59:38.165Z,96674.27
2019-04-03T21:02:08.073Z,96674.49
2019-04-03T21:04:36.151Z,96678.95
2019-04-03T21:07:04.001Z,96691.09
2019-04-03T21:09:31.973Z,96681.92
2019-04-03T21:11:59.893Z,96690.23
2019-04-03T21:14:28.062Z,96687.70
2019-04-03T21:16:56.263Z,96682.30
2019-04-03T21:19:24.368Z,96689.64
2019-04-03T21:21:52.581Z,96688.39
2019-04-03T21:24:20.519Z,96683.56
2019-04-03T21:26:48.574Z,96691.13
2019-04-03T21:29:17.379Z,96684.03
2019-04-03T21:31:45.526Z,96672.84
2019-04-03T21:34:13.687Z,96695.90
2019-04-03T21:36:41.678Z,96688.38
2019-04-03T21:39:10.989Z,96677.88
2019-04-03T21:41:39.777Z,96685.24
2019-04-03T21:44:07.829Z,96683.19
2019-04-03T21:46:35.913Z,96690.92
2019-04-03T21:49:03.975Z,96675.80
2019-04-03T21:51:31.894Z,96665.59
2019-04-03T21:54:00.152Z,96696.58
2019-04-03T21:56:28.210Z,96687.33
2019-04-03T21:58:56.126Z,96686.42
2019-04-03T22:01:25.813Z,96674.81
2019-04-03T22:03:53.985Z,96679.42
2019-04-03T22:06:22.268Z,96676.30
2019-04-03T22:08:52.013Z,96673.17
2019-04-03T22:11:20.021Z,96668.50
2019-04-03T22:13:49.521Z,96665.84
2019-04-03T22:16:20.407Z,96670.56
2019-04-03T22:18:48.510Z,96666.81
2019-04-03T22:21:17.675Z,96658.85
2019-04-03T22:23:45.720Z,96651.02
2019-04-03T22:26:13.962Z,96658.77
2019-04-03T22:28:41.880Z,96656.06
2019-04-03T22:31:09.512Z,96663.84
2019-04-03T22:33:37.355Z,96667.05
2019-04-03T22:36:05.432Z,96660.97
2019-04-03T22:38:33.193Z,96660.30
2019-04-03T22:41:01.363Z,96664.42
2019-04-03T22:43:29.095Z,96662.09
2019-04-03T22:45:57.221Z,96660.67
2019-04-03T22:48:27.482Z,96661.86
2019-04-03T22:50:55.032Z,96664.72
2019-04-03T22:53:23.118Z,96660.35
2019-04-03T22:55:51.538Z,96661.67
2019-04-03T22:58:21.499Z,96657.59
2019-04-03T23:00:49.684Z,96652.64
2019-04-03T23:03:17.565Z,96657.63
2019-04-03T23:05:47.740Z,96651.71
2019-04-03T23:08:16.434Z,96654.11
2019-04-03T23:10:44.500Z,96652.66
2019-04-03T23:13:12.399Z,96647.98
2019-04-03T23:15:40.215Z,96651.45
2019-04-03T23:18:08.106Z,96644.78
2019-04-03T23:20:36.182Z,96621.69
2019-04-03T23:23:04.224Z,96641.48
2019-04-03T23:25:32.294Z,96640.54
2019-04-03T23:28:02.806Z,96640.97
2019-04-03T23:30:30.083Z,96648.74
2019-04-03T23:32:57.905Z,96643.72
2019-04-03T23:35:26.001Z,96647.42
2019-04-03T23:37:55.807Z,96640.66
2019-04-03T23:40:23.981Z,96632.56
2019-04-03T23:42:51.975Z,96629.72
2019-04-03T23:45:20.769Z,96622.53
2019-04-03T23:47:48.856Z,96626.73
2019-04-03T23:50:17.195Z,96626.34
2019-04-03T23:52:45.018Z,96630.29
2019-04-03T23:55:12.980Z,96624.67
2019-04-03T23:57:41.068Z,96618.47
